Time;durP1;ratioP1;P1;durP2;ratioP2;P2;SDS_P1;SDS_P2;PMS_P1;PMS_P2;Temp;Humidity;BMP_temperature;BMP_pressure;BME280_temperature;BME280_humidity;BME280_pressure;Samples;Min_cycle;Max_cycle;Signal;HPM_P1;HPM_P2
2023/06/17 00:02:07;;;;;;;1.75;1.05;;;;;;;17.93;65.96;94287.94;5087618;28;20456;-73
2023/06/17 00:04:32;;;;;;;1.20;1.10;;;;;;;17.91;66.26;94290.47;5087810;28;20042;-75
2023/06/17 00:06:58;;;;;;;2.58;1.02;;;;;;;17.87;66.16;94290.69;5087055;28;20040;-75
2023/06/17 00:09:25;;;;;;;2.30;1.23;;;;;;;17.84;65.93;94294.50;5087490;28;20480;-75
2023/06/17 00:11:51;;;;;;;1.58;1.30;;;;;;;17.82;66.01;94287.91;5087380;28;20024;-74
2023/06/17 00:14:20;;;;;;;2.22;1.35;;;;;;;17.84;66.09;94288.94;5086275;28;20498;-75
2023/06/17 00:16:49;;;;;;;1.80;1.42;;;;;;;17.77;66.25;94283.81;5085870;28;20020;-74
2023/06/17 00:19:17;;;;;;;1.65;1.35;;;;;;;17.80;66.40;94290.41;5087710;28;20031;-75
2023/06/17 00:21:44;;;;;;;2.85;1.60;;;;;;;17.78;66.02;94277.03;5085598;28;20103;-75
2023/06/17 00:24:12;;;;;;;2.70;1.67;;;;;;;17.74;66.29;94274.47;5085807;28;20034;-75
2023/06/17 00:26:37;;;;;;;3.47;1.55;;;;;;;17.65;66.51;94266.31;5087435;28;20498;-74
2023/06/17 00:29:05;;;;;;;2.10;1.70;;;;;;;17.64;66.88;94275.91;5085623;28;20031;-74
2023/06/17 00:31:30;;;;;;;3.55;1.80;;;;;;;17.63;66.92;94276.44;5087503;28;20020;-74
2023/06/17 00:33:56;;;;;;;2.00;1.63;;;;;;;17.62;66.47;94272.13;5087861;28;20107;-74
2023/06/17 00:36:21;;;;;;;3.25;1.70;;;;;;;17.54;67.10;94277.38;5085931;28;20027;-74
2023/06/17 00:38:46;;;;;;;2.55;2.05;;;;;;;17.44;67.20;94278.88;5086746;28;20035;-75
2023/06/17 00:41:12;;;;;;;2.35;1.90;;;;;;;17.44;67.33;94274.06;5087215;28;20115;-74
2023/06/17 00:43:37;;;;;;;2.20;1.83;;;;;;;17.41;67.55;94269.50;5087054;28;20505;-75
2023/06/17 00:46:02;;;;;;;2.72;1.98;;;;;;;17.38;67.49;94269.75;5086742;28;20105;-75
2023/06/17 00:48:28;;;;;;;2.50;1.88;;;;;;;17.36;67.79;94270.22;5086860;28;20398;-74
2023/06/17 00:50:53;;;;;;;2.10;1.83;;;;;;;17.41;67.53;94277.06;5085015;28;20050;-74
2023/06/17 00:53:19;;;;;;;3.08;1.90;;;;;;;17.43;67.59;94271.78;5085487;28;20103;-74
2023/06/17 00:55:45;;;;;;;2.17;1.98;;;;;;;17.43;67.50;94274.53;5086569;28;20024;-74
2023/06/17 00:58:11;;;;;;;2.10;1.80;;;;;;;17.44;67.39;94271.28;5085416;28;20701;-73
2023/06/17 01:00:37;;;;;;;2.85;2.00;;;;;;;17.40;67.52;94273.53;5085030;28;20600;-73
2023/06/17 01:03:02;;;;;;;2.50;1.90;;;;;;;17.25;68.01;94259.81;5084349;28;20111;-74
2023/06/17 01:05:28;;;;;;;2.60;2.20;;;;;;;17.28;67.80;94260.09;5085300;28;20442;-74
2023/06/17 01:08:33;;;;;;;2.53;2.33;;;;;;;17.26;67.91;94252.25;5085012;28;20097;-74
2023/06/17 01:11:12;;;;;;;3.08;2.10;;;;;;;17.20;67.98;94248.66;5086384;28;20024;-75
2023/06/17 01:13:44;;;;;;;2.42;1.95;;;;;;;17.12;68.17;94245.59;5068415;28;20135;-75
2023/06/17 01:16:10;;;;;;;3.78;2.22;;;;;;;17.14;68.29;94250.66;5084757;28;20528;-75
2023/06/17 01:18:37;;;;;;;2.30;2.00;;;;;;;17.09;68.56;94249.41;5086475;28;20061;-74
2023/06/17 01:21:03;;;;;;;2.17;1.90;;;;;;;17.11;68.57;94249.66;5084507;28;20030;-75
2023/06/17 01:23:31;;;;;;;2.05;1.85;;;;;;;17.08;68.61;94255.41;5085143;28;20184;-75
2023/06/17 01:25:58;;;;;;;2.55;2.22;;;;;;;17.08;68.72;94250.63;5067718;28;20089;-75
2023/06/17 01:28:24;;;;;;;2.58;2.15;;;;;;;17.13;69.02;94255.44;5085399;28;20035;-75
2023/06/17 01:30:54;;;;;;;3.80;2.10;;;;;;;17.17;68.45;94249.69;5086219;28;20510;-74
2023/06/17 01:33:21;;;;;;;2.42;2.03;;;;;;;17.16;68.72;94257.25;5084784;28;20020;-75
2023/06/17 01:36:00;;;;;;;3.45;1.90;;;;;;;17.21;68.52;94264.09;5085202;28;20027;-75
2023/06/17 01:38:35;;;;;;;2.38;2.17;;;;;;;17.15;68.30;94255.75;5086928;28;20021;-74
2023/06/17 01:41:15;;;;;;;2.28;1.90;;;;;;;17.10;68.92;94250.16;5084481;28;20462;-75
2023/06/17 01:43:41;;;;;;;2.28;1.98;;;;;;;17.10;68.75;94250.91;5086088;28;20032;-74
2023/06/17 01:46:07;;;;;;;2.78;1.80;;;;;;;17.11;68.96;94241.31;5085603;28;20050;-74
2023/06/17 01:48:32;;;;;;;2.00;1.80;;;;;;;17.13;68.58;94244.34;5086091;28;20046;-75
2023/06/17 01:50:58;;;;;;;2.17;1.80;;;;;;;17.17;68.53;94244.13;5083875;28;20055;-75
2023/06/17 01:53:24;;;;;;;2.55;1.67;;;;;;;17.19;68.19;94247.91;5084618;28;20052;-75
2023/06/17 01:55:51;;;;;;;1.88;1.60;;;;;;;17.18;68.47;94249.19;5085970;28;20031;-75
2023/06/17 01:58:16;;;;;;;2.03;1.60;;;;;;;17.16;68.41;94246.16;5084261;28;20522;-74
2023/06/17 02:00:42;;;;;;;2.00;1.55;;;;;;;17.19;68.65;94250.69;5085889;28;20024;-74
2023/06/17 02:03:07;;;;;;;1.95;1.52;;;;;;;17.22;68.31;94246.94;5086005;28;20035;-74
2023/06/17 02:05:32;;;;;;;1.80;1.60;;;;;;;17.14;68.52;94245.88;5067557;28;20048;-74
2023/06/17 02:08:05;;;;;;;1.90;1.50;;;;;;;17.11;68.60;94244.09;5085765;28;20103;-74
2023/06/17 02:10:30;;;;;;;1.70;1.40;;;;;;;17.15;68.55;94243.88;5085779;28;20063;-74
2023/06/17 02:12:56;;;;;;;2.33;1.63;;;;;;;17.14;68.83;94240.31;5087154;28;20711;-74
2023/06/17 02:15:21;;;;;;;2.83;1.58;;;;;;;17.13;68.76;94241.56;5089683;28;20536;-74
2023/06/17 02:17:46;;;;;;;1.90;1.70;;;;;;;17.18;68.92;94246.41;5088265;28;20027;-74
2023/06/17 02:20:12;;;;;;;4.65;1.75;;;;;;;17.15;68.66;94252.19;5089381;28;20016;-74
2023/06/17 02:22:38;;;;;;;2.33;1.75;;;;;;;17.15;69.13;94250.19;5088060;28;20024;-74
2023/06/17 02:25:05;;;;;;;2.15;1.75;;;;;;;17.17;69.10;94255.22;5087853;28;20161;-74
2023/06/17 02:27:30;;;;;;;3.00;1.65;;;;;;;17.17;68.84;94252.47;5088222;28;20069;-73
2023/06/17 02:29:56;;;;;;;1.95;1.52;;;;;;;17.20;68.46;94254.22;5088073;28;20110;-73
2023/06/17 02:32:21;;;;;;;1.63;1.35;;;;;;;17.22;68.63;94258.03;5087834;28;20035;-73
2023/06/17 02:34:48;;;;;;;2.20;1.58;;;;;;;17.23;68.85;94250.47;5089536;28;20376;-73
2023/06/17 02:37:14;;;;;;;1.48;1.10;;;;;;;17.19;68.85;94259.03;5087791;28;20060;-73
2023/06/17 02:39:40;;;;;;;2.47;1.52;;;;;;;17.16;68.90;94260.03;5087954;28;20406;-73
2023/06/17 02:42:07;;;;;;;1.83;1.50;;;;;;;17.18;68.52;94254.72;5087599;28;20020;-74
2023/06/17 02:44:32;;;;;;;3.25;1.30;;;;;;;17.16;68.61;94256.50;5089393;28;20173;-74
2023/06/17 02:46:58;;;;;;;2.10;1.30;;;;;;;17.13;68.59;94249.16;5087537;28;20055;-73
2023/06/17 02:49:23;;;;;;;1.95;1.42;;;;;;;17.16;68.49;94256.50;5087271;28;20050;-73
2023/06/17 02:51:48;;;;;;;1.70;1.30;;;;;;;17.13;68.78;94258.22;5089184;28;20024;-73
2023/06/17 02:54:14;;;;;;;2.00;1.48;;;;;;;17.14;69.01;94259.75;5089030;28;20398;-73
2023/06/17 02:56:39;;;;;;;1.98;1.50;;;;;;;17.14;68.65;94259.00;5089972;28;20016;-73
2023/06/17 02:59:08;;;;;;;2.00;1.67;;;;;;;17.12;68.82;94256.72;5089256;28;20020;-74
2023/06/17 03:01:39;;;;;;;2.33;1.65;;;;;;;17.11;68.85;94254.44;5087488;28;20042;-73
2023/06/17 03:04:05;;;;;;;2.47;1.77;;;;;;;17.12;69.03;94253.19;5088755;28;20024;-73
2023/06/17 03:06:33;;;;;;;2.13;1.70;;;;;;;17.13;68.91;94260.25;5087124;28;20494;-74
2023/06/17 03:09:00;;;;;;;2.60;1.75;;;;;;;17.11;69.06;94266.31;5087110;28;20028;-73
2023/06/17 03:11:25;;;;;;;3.05;1.80;;;;;;;17.08;69.15;94261.72;5087134;28;20085;-73
2023/06/17 03:13:51;;;;;;;2.03;1.83;;;;;;;17.12;68.82;94264.28;5087123;28;20027;-73
2023/06/17 03:16:16;;;;;;;2.33;1.83;;;;;;;17.12;69.18;94270.59;5070158;28;20027;-73
2023/06/17 03:18:42;;;;;;;2.60;1.65;;;;;;;17.11;69.21;94271.09;5088421;28;20051;-73
2023/06/17 03:21:07;;;;;;;2.00;1.77;;;;;;;17.13;69.13;94274.13;5069863;28;20036;-73
2023/06/17 03:23:33;;;;;;;3.22;1.98;;;;;;;17.12;68.84;94269.84;5086644;28;20051;-74
2023/06/17 03:25:58;;;;;;;2.40;2.00;;;;;;;17.12;69.28;94273.38;5087635;28;20020;-73
2023/06/17 03:28:24;;;;;;;1.95;1.63;;;;;;;17.11;69.07;94271.88;5088134;28;20054;-73
2023/06/17 03:30:49;;;;;;;1.90;1.63;;;;;;;17.10;69.07;94270.34;5088558;28;20056;-74
2023/06/17 03:33:15;;;;;;;2.53;1.80;;;;;;;17.10;68.91;94287.00;5088162;28;20086;-73
2023/06/17 03:35:40;;;;;;;2.20;1.40;;;;;;;17.08;68.91;94275.63;5086778;28;20028;-73
2023/06/17 03:38:07;;;;;;;3.13;1.85;;;;;;;17.09;68.90;94282.72;5086764;28;20056;-73
2023/06/17 03:40:33;;;;;;;3.08;1.70;;;;;;;17.08;69.13;94283.94;5086476;28;20024;-73
2023/06/17 03:42:58;;;;;;;2.42;1.77;;;;;;;17.05;69.29;94282.19;5087881;28;20028;-73
2023/06/17 03:45:24;;;;;;;1.90;1.40;;;;;;;16.95;69.51;94283.63;5086437;28;20020;-73
2023/06/17 03:47:49;;;;;;;2.70;1.42;;;;;;;17.00;69.24;94288.44;5087671;28;20024;-74
2023/06/17 03:50:15;;;;;;;1.40;1.23;;;;;;;16.99;69.22;94286.94;5087700;28;20039;-74
2023/06/17 03:52:40;;;;;;;2.40;1.40;;;;;;;17.04;69.08;94289.00;5086337;28;20020;-74
2023/06/17 03:55:06;;;;;;;2.72;1.30;;;;;;;17.02;69.12;94291.47;5087828;28;20124;-74
2023/06/17 03:57:31;;;;;;;2.95;1.27;;;;;;;17.04;69.26;94289.00;5086101;28;20023;-74
2023/06/17 03:59:57;;;;;;;1.95;1.23;;;;;;;17.05;69.31;94289.75;5086416;28;20024;-74
2023/06/17 04:02:22;;;;;;;2.47;1.30;;;;;;;17.05;69.10;94284.94;5086315;28;20086;-74
2023/06/17 04:04:52;;;;;;;1.75;1.20;;;;;;;17.07;69.56;94298.34;5085918;28;20024;-74
2023/06/17 04:07:18;;;;;;;1.95;1.25;;;;;;;17.10;69.26;94300.13;5087572;28;20048;-74
2023/06/17 04:09:43;;;;;;;1.02;0.88;;;;;;;17.13;69.19;94301.91;5087147;28;20024;-74
2023/06/17 04:12:09;;;;;;;2.55;0.93;;;;;;;17.11;69.01;94299.63;5087572;28;20049;-74
2023/06/17 04:14:35;;;;;;;2.35;0.90;;;;;;;17.15;68.85;94310.53;5087252;28;20471;-74
2023/06/17 04:17:01;;;;;;;1.00;0.77;;;;;;;17.11;68.75;94307.22;5087495;28;20035;-75
2023/06/17 04:19:27;;;;;;;3.08;0.80;;;;;;;17.17;68.36;94310.78;5087018;28;20353;-74
2023/06/17 04:21:52;;;;;;;1.70;0.60;;;;;;;17.19;68.36;94311.03;5086963;28;20028;-74
2023/06/17 04:24:18;;;;;;;0.52;0.50;;;;;;;17.20;68.51;94313.34;5087346;28;20057;-74
2023/06/17 04:26:44;;;;;;;0.80;0.68;;;;;;;17.21;68.20;94317.63;5085430;28;20488;-74
2023/06/17 04:29:10;;;;;;;2.65;1.45;;;;;;;17.23;67.99;94322.69;5085597;28;20485;-74
2023/06/17 04:31:39;;;;;;;1.92;0.70;;;;;;;17.22;68.19;94327.47;5087133;28;20016;-74
2023/06/17 04:34:05;;;;;;;0.57;0.55;;;;;;;17.21;68.39;94325.19;5085906;28;20032;-74
2023/06/17 04:36:30;;;;;;;1.33;0.73;;;;;;;17.09;68.15;94326.34;5085149;28;20363;-74
2023/06/17 04:38:56;;;;;;;1.10;0.70;;;;;;;17.10;68.58;94325.88;5086942;28;20016;-73
2023/06/17 04:41:21;;;;;;;0.77;0.60;;;;;;;17.16;68.19;94337.03;5085567;28;20024;-74
2023/06/17 04:43:48;;;;;;;1.30;0.80;;;;;;;17.19;68.67;94325.69;5086434;28;20016;-74
2023/06/17 04:46:17;;;;;;;0.88;0.60;;;;;;;17.17;68.67;94336.53;5085567;28;20025;-73
2023/06/17 04:48:43;;;;;;;1.08;0.60;;;;;;;17.15;68.41;94344.59;5086336;28;20028;-73
2023/06/17 04:51:09;;;;;;;1.50;0.85;;;;;;;17.14;68.48;94340.28;5085285;28;20107;-73
2023/06/17 04:53:38;;;;;;;1.83;1.00;;;;;;;17.14;68.71;94340.28;5085074;28;20039;-73
2023/06/17 04:56:04;;;;;;;1.08;0.70;;;;;;;16.99;68.95;94346.00;5085246;28;20051;-73
2023/06/17 04:58:30;;;;;;;1.48;0.70;;;;;;;17.05;68.84;94334.94;5086660;28;20107;-73
2023/06/17 05:00:55;;;;;;;1.15;0.75;;;;;;;17.11;69.05;94338.50;5085991;28;20435;-73
2023/06/17 05:03:20;;;;;;;0.77;0.60;;;;;;;17.07;69.28;94340.75;5068388;28;20035;-73
2023/06/17 05:05:46;;;;;;;2.22;0.75;;;;;;;17.13;68.98;94349.88;5084759;28;20032;-73
2023/06/17 05:08:11;;;;;;;1.63;0.70;;;;;;;17.15;68.95;94347.38;5084853;28;20505;-73
2023/06/17 05:10:36;;;;;;;1.85;0.68;;;;;;;17.10;69.17;94345.31;5085957;28;20077;-73
2023/06/17 05:13:02;;;;;;;2.53;0.80;;;;;;;17.16;68.98;94345.38;5086466;28;20051;-73
2023/06/17 05:15:27;;;;;;;2.13;0.98;;;;;;;17.17;69.22;94352.44;5086440;28;20031;-73
2023/06/17 05:17:53;;;;;;;2.00;0.70;;;;;;;17.18;68.91;94349.16;5085940;28;20118;-73
2023/06/17 05:20:18;;;;;;;1.17;0.73;;;;;;;17.17;69.21;94338.53;5086561;28;20028;-73
2023/06/17 05:22:43;;;;;;;2.70;0.80;;;;;;;17.15;69.07;94347.38;5085703;28;20024;-73
2023/06/17 05:25:09;;;;;;;0.93;0.63;;;;;;;17.12;69.19;94344.81;5086306;28;20116;-74
2023/06/17 05:27:34;;;;;;;2.55;1.00;;;;;;;17.13;69.22;94340.78;5086126;28;20115;-73
2023/06/17 05:30:00;;;;;;;1.25;0.68;;;;;;;16.94;69.65;94345.94;5086402;28;20406;-74
2023/06/17 05:32:25;;;;;;;2.28;0.90;;;;;;;16.99;69.42;94343.22;5086032;28;20149;-74
2023/06/17 05:34:51;;;;;;;1.08;0.73;;;;;;;17.08;69.45;94352.59;5085905;28;20499;-74
2023/06/17 05:37:16;;;;;;;1.17;0.90;;;;;;;17.06;69.58;94355.88;5086184;28;20052;-74
2023/06/17 05:39:42;;;;;;;1.55;0.70;;;;;;;17.12;69.17;94367.78;5084259;28;20432;-74
2023/06/17 05:42:07;;;;;;;1.88;0.90;;;;;;;17.17;69.16;94355.97;5084639;28;20088;-75
2023/06/17 05:44:32;;;;;;;1.08;0.70;;;;;;;17.12;69.02;94358.72;5086052;28;20016;-75
2023/06/17 05:46:58;;;;;;;1.48;0.70;;;;;;;17.14;68.94;94354.16;5084437;28;20028;-74
2023/06/17 05:49:23;;;;;;;2.90;0.90;;;;;;;17.17;69.06;94350.41;5088254;28;20347;-75
2023/06/17 05:51:48;;;;;;;3.90;1.25;;;;;;;17.12;69.07;94351.13;5089716;28;20111;-74
2023/06/17 05:54:14;;;;;;;1.52;0.90;;;;;;;17.06;69.25;94341.25;5090109;28;20028;-75
2023/06/17 05:56:39;;;;;;;2.30;1.00;;;;;;;17.04;69.32;94350.06;5088822;28;20020;-75
2023/06/17 05:59:05;;;;;;;3.17;1.25;;;;;;;17.12;69.50;94348.34;5090043;28;20031;-74
2023/06/17 06:01:31;;;;;;;3.03;1.20;;;;;;;17.12;69.50;94347.59;5089875;28;20027;-74
2023/06/17 06:03:56;;;;;;;1.42;0.95;;;;;;;17.02;69.65;94344.22;5089867;28;20063;-75
2023/06/17 06:06:21;;;;;;;1.67;0.90;;;;;;;16.99;69.83;94348.78;5088338;28;20131;-74
2023/06/17 06:08:47;;;;;;;1.70;1.10;;;;;;;17.07;69.97;94351.09;5089684;28;20023;-75
2023/06/17 06:11:12;;;;;;;4.13;1.50;;;;;;;17.06;69.87;94347.56;5089718;28;20479;-74
2023/06/17 06:13:37;;;;;;;2.50;1.10;;;;;;;17.03;69.98;94345.75;5089951;28;20066;-75
2023/06/17 06:16:03;;;;;;;1.77;1.00;;;;;;;17.05;69.99;94340.47;5088277;28;20032;-76
2023/06/17 06:18:29;;;;;;;2.28;0.80;;;;;;;17.04;69.92;94343.75;5087931;28;20535;-75
2023/06/17 06:20:55;;;;;;;7.95;1.75;;;;;;;17.02;69.96;94347.00;5089281;28;20028;-75
2023/06/17 06:23:20;;;;;;;1.58;0.90;;;;;;;17.05;70.35;94343.25;5089125;28;20058;-75
2023/06/17 06:25:46;;;;;;;2.50;1.20;;;;;;;17.10;70.30;94339.78;5089575;28;20020;-75
2023/06/17 06:28:11;;;;;;;2.50;1.30;;;;;;;17.11;70.23;94351.63;5089083;28;20032;-75
2023/06/17 06:30:36;;;;;;;2.67;1.13;;;;;;;17.11;69.74;94357.94;5089394;28;20103;-74
2023/06/17 06:33:02;;;;;;;1.63;1.00;;;;;;;17.11;69.97;94359.97;5089114;28;20028;-73
2023/06/17 06:35:27;;;;;;;1.80;1.10;;;;;;;17.14;69.86;94368.06;5089438;28;20024;-75
2023/06/17 06:37:53;;;;;;;1.95;1.05;;;;;;;17.14;69.76;94362.50;5089000;28;20034;-75
2023/06/17 06:40:18;;;;;;;2.20;1.02;;;;;;;17.05;70.07;94368.25;5088948;28;20024;-74
2023/06/17 06:42:43;;;;;;;1.85;1.00;;;;;;;17.12;70.01;94364.25;5087931;28;20433;-73
2023/06/17 06:45:09;;;;;;;2.75;1.63;;;;;;;17.07;70.09;94360.19;5087593;28;20107;-74
2023/06/17 06:47:35;;;;;;;2.35;0.93;;;;;;;17.18;69.85;94367.84;5089113;28;20442;-73
2023/06/17 06:50:00;;;;;;;1.10;0.82;;;;;;;17.18;69.94;94374.16;5088421;28;20031;-75
2023/06/17 06:52:26;;;;;;;2.03;1.20;;;;;;;17.12;69.95;94367.03;5087479;28;20051;-74
2023/06/17 06:54:51;;;;;;;5.28;1.65;;;;;;;17.22;69.77;94369.13;5087501;28;20036;-74
2023/06/17 06:57:16;;;;;;;1.60;0.88;;;;;;;17.27;70.12;94369.69;5088604;28;20032;-74
2023/06/17 06:59:42;;;;;;;2.92;1.05;;;;;;;17.33;69.99;94373.25;5087624;28;20405;-74
2023/06/17 07:02:07;;;;;;;1.33;0.90;;;;;;;17.40;69.56;94364.47;5086712;28;20510;-74
2023/06/17 07:04:32;;;;;;;2.65;1.02;;;;;;;17.46;69.69;94359.69;5087476;28;20020;-74
2023/06/17 07:06:58;;;;;;;2.90;1.60;;;;;;;17.49;69.53;94362.25;5088367;28;20150;-74
2023/06/17 07:09:23;;;;;;;2.60;1.50;;;;;;;17.56;69.79;94374.16;5088637;28;20459;-74
2023/06/17 07:11:49;;;;;;;2.35;1.35;;;;;;;17.67;69.54;94365.91;5087109;28;20028;-73
2023/06/17 07:14:14;;;;;;;4.28;2.70;;;;;;;17.77;69.58;94367.22;5088609;28;20012;-74
2023/06/17 07:16:40;;;;;;;8.45;4.32;;;;;;;17.82;69.29;94354.63;5087429;28;20035;-74
2023/06/17 07:19:05;;;;;;;7.13;4.10;;;;;;;17.90;68.99;94359.22;5088221;28;20025;-73
2023/06/17 07:21:30;;;;;;;5.90;3.40;;;;;;;17.95;69.04;94361.25;5088469;28;20027;-75
2023/06/17 07:23:56;;;;;;;3.00;1.20;;;;;;;18.03;68.69;94364.31;5086689;28;20173;-74
2023/06/17 07:26:21;;;;;;;2.83;1.05;;;;;;;17.97;68.55;94366.31;5088524;28;20039;-74
2023/06/17 07:28:46;;;;;;;2.72;1.50;;;;;;;18.08;68.16;94357.25;5088244;28;20402;-74
2023/06/17 07:31:15;;;;;;;1.35;0.98;;;;;;;18.01;68.09;94366.84;5086495;28;20031;-75
2023/06/17 07:33:40;;;;;;;2.47;1.40;;;;;;;18.03;68.56;94369.88;5088234;28;20024;-75
2023/06/17 07:36:06;;;;;;;2.13;0.95;;;;;;;18.09;68.72;94365.09;5070042;28;20027;-74
2023/06/17 07:38:34;;;;;;;2.17;0.90;;;;;;;18.17;68.30;94376.50;5088690;28;20024;-75
2023/06/17 07:41:00;;;;;;;1.45;0.88;;;;;;;18.19;68.47;94374.75;5091033;28;20024;-74
2023/06/17 07:43:26;;;;;;;1.65;0.77;;;;;;;18.21;68.52;94365.91;5087012;28;20024;-75
2023/06/17 07:45:51;;;;;;;2.47;1.00;;;;;;;18.31;68.12;94364.41;5086856;28;20032;-74
2023/06/17 07:48:17;;;;;;;2.05;1.02;;;;;;;18.41;67.81;94378.84;5087669;28;20141;-73
2023/06/17 07:50:42;;;;;;;2.63;1.60;;;;;;;18.36;67.86;94376.84;5086190;28;20024;-74
2023/06/17 07:53:08;;;;;;;3.00;1.10;;;;;;;18.45;67.01;94384.94;5087640;28;20024;-74
2023/06/17 07:55:33;;;;;;;1.75;0.93;;;;;;;18.50;66.90;94387.75;5087805;28;20039;-75
2023/06/17 07:57:59;;;;;;;2.00;1.50;;;;;;;18.55;67.08;94378.66;5087866;28;20418;-73
2023/06/17 08:00:24;;;;;;;4.00;1.50;;;;;;;18.66;67.11;94389.06;5087676;28;20390;-73
2023/06/17 08:02:50;;;;;;;4.18;1.63;;;;;;;18.72;66.69;94395.41;5087413;28;20020;-73
2023/06/17 08:05:15;;;;;;;2.95;1.40;;;;;;;18.65;66.89;94381.97;5087329;28;20135;-73
2023/06/17 08:07:41;;;;;;;3.88;1.95;;;;;;;18.69;66.58;94378.94;5087562;28;20054;-73
2023/06/17 08:10:07;;;;;;;4.20;1.60;;;;;;;18.67;66.53;94387.03;5086964;28;20031;-74
2023/06/17 08:12:32;;;;;;;2.75;1.42;;;;;;;18.71;66.61;94393.91;5087302;28;20060;-73
2023/06/17 08:14:58;;;;;;;3.22;2.00;;;;;;;18.62;66.59;94394.09;5086006;28;20447;-73
2023/06/17 08:17:23;;;;;;;2.08;1.48;;;;;;;18.63;66.88;94395.63;5087410;28;20031;-74
2023/06/17 08:19:48;;;;;;;3.28;1.70;;;;;;;18.58;66.90;94397.13;5085747;28;20020;-73
2023/06/17 08:22:14;;;;;;;4.85;2.28;;;;;;;18.47;67.09;94399.13;5086946;28;20024;-74
2023/06/17 08:24:39;;;;;;;2.95;1.50;;;;;;;18.56;66.97;94407.25;5087310;28;20103;-73
2023/06/17 08:27:05;;;;;;;2.50;1.20;;;;;;;18.56;67.02;94404.47;5086139;28;20016;-73
2023/06/17 08:29:31;;;;;;;4.88;2.20;;;;;;;18.58;66.97;94404.72;5085470;28;20123;-73
2023/06/17 08:31:57;;;;;;;3.72;2.50;;;;;;;18.65;66.35;94406.25;5086852;28;20126;-75
2023/06/17 08:34:22;;;;;;;2.97;1.40;;;;;;;18.58;66.32;94405.50;5084835;28;20020;-74
2023/06/17 08:36:54;;;;;;;3.75;2.20;;;;;;;18.62;67.05;94407.25;5086786;28;20032;-74
2023/06/17 08:39:20;;;;;;;2.15;1.30;;;;;;;18.59;66.85;94400.69;5068840;28;20078;-74
2023/06/17 08:41:46;;;;;;;2.72;1.63;;;;;;;18.57;67.05;94405.97;5085413;28;20031;-74
2023/06/17 08:44:12;;;;;;;2.60;1.70;;;;;;;18.68;67.18;94403.25;5085596;28;20444;-74
2023/06/17 08:46:39;;;;;;;3.33;1.88;;;;;;;18.70;66.96;94414.66;5086647;28;20031;-75
2023/06/17 08:49:04;;;;;;;2.63;1.80;;;;;;;18.75;67.13;94405.56;5085367;28;20073;-76
2023/06/17 08:51:30;;;;;;;2.22;1.48;;;;;;;18.74;67.16;94415.16;5086337;28;20028;-74
2023/06/17 08:53:56;;;;;;;2.13;1.42;;;;;;;18.73;67.17;94413.63;5087129;28;20514;-73
2023/06/17 08:56:22;;;;;;;3.10;1.42;;;;;;;18.79;67.10;94408.84;5085186;28;20036;-74
2023/06/17 08:58:49;;;;;;;3.40;1.60;;;;;;;18.71;67.34;94409.84;5084813;28;20105;-76
2023/06/17 09:01:15;;;;;;;4.15;2.20;;;;;;;18.72;66.78;94408.59;5085482;28;20020;-76
2023/06/17 09:03:41;;;;;;;4.35;3.30;;;;;;;18.75;67.04;94413.13;5084944;28;20028;-76
2023/06/17 09:06:23;;;;;;;6.50;2.85;;;;;;;18.80;67.86;94404.78;5084907;28;20256;-76
2023/06/17 09:08:53;;;;;;;3.40;2.58;;;;;;;18.78;67.56;94407.31;5085002;28;20588;-75
2023/06/17 09:11:26;;;;;;;3.17;2.00;;;;;;;18.78;67.81;94412.91;5084993;28;20032;-74
2023/06/17 09:13:55;;;;;;;2.42;2.17;;;;;;;18.87;68.34;94399.97;5085358;28;20117;-73
2023/06/17 09:16:24;;;;;;;2.45;1.60;;;;;;;18.86;68.00;94399.22;5084638;28;20031;-72
2023/06/17 09:18:56;;;;;;;2.88;1.95;;;;;;;18.74;67.61;94406.03;5086462;28;20082;-78
2023/06/17 09:21:22;;;;;;;5.47;2.60;;;;;;;18.79;67.69;94399.72;5084727;28;20020;-72
2023/06/17 09:23:55;;;;;;;2.78;2.08;;;;;;;18.86;67.56;94390.13;5084023;28;20474;-73
2023/06/17 09:26:25;;;;;;;2.60;2.00;;;;;;;18.99;67.60;94402.31;5086140;28;20020;-72
2023/06/17 09:28:51;;;;;;;4.13;3.08;;;;;;;18.95;67.38;94390.63;5084509;28;20495;-73
2023/06/17 09:31:18;;;;;;;4.53;3.58;;;;;;;19.09;66.94;94403.56;5084519;28;20115;-73
2023/06/17 09:33:44;;;;;;;4.13;3.22;;;;;;;19.16;66.61;94402.31;5084201;28;20032;-73
2023/06/17 09:36:10;;;;;;;4.45;2.42;;;;;;;19.26;66.23;94413.94;5084870;28;20028;-73
2023/06/17 09:38:37;;;;;;;5.80;2.58;;;;;;;19.27;66.27;94409.91;5084480;28;20089;-74
2023/06/17 09:41:04;;;;;;;5.57;2.40;;;;;;;19.38;66.37;94412.69;5084742;28;20107;-74
2023/06/17 09:43:30;;;;;;;4.45;2.30;;;;;;;19.40;65.18;94410.16;5084405;28;20138;-73
2023/06/17 09:46:00;;;;;;;5.10;2.13;;;;;;;19.58;64.73;94406.09;5084500;28;20099;-74
2023/06/17 09:48:30;;;;;;;2.83;1.45;;;;;;;19.64;64.61;94409.66;5084015;28;20491;-73
2023/06/17 09:50:56;;;;;;;6.45;3.22;;;;;;;19.57;65.03;94410.16;5083676;28;20020;-73
2023/06/17 09:53:24;;;;;;;3.25;1.88;;;;;;;19.59;64.98;94410.41;5084079;28;20047;-74
2023/06/17 09:55:55;;;;;;;3.05;1.70;;;;;;;19.78;64.55;94416.22;5084287;28;20518;-74
2023/06/17 09:58:22;;;;;;;3.83;1.60;;;;;;;19.91;64.62;94416.47;5085950;28;20032;-74
2023/06/17 10:00:51;;;;;;;4.40;2.08;;;;;;;19.87;63.99;94402.00;5084725;28;20109;-74
2023/06/17 10:03:17;;;;;;;4.28;2.60;;;;;;;19.91;63.99;94408.09;5085215;28;20030;-74
2023/06/17 10:05:43;;;;;;;3.25;1.90;;;;;;;20.02;64.04;94418.47;5086101;28;20044;-74
2023/06/17 10:08:09;;;;;;;3.03;1.30;;;;;;;20.01;63.10;94411.34;5085557;28;20503;-74
2023/06/17 10:10:34;;;;;;;2.30;1.42;;;;;;;19.90;63.52;94412.16;5067237;28;20469;-74
2023/06/17 10:13:01;;;;;;;2.85;1.80;;;;;;;20.06;63.26;94414.13;5084187;28;20031;-74
2023/06/17 10:15:26;;;;;;;3.20;1.23;;;;;;;20.01;63.32;94423.25;5086118;28;20107;-74
2023/06/17 10:17:53;;;;;;;2.15;1.35;;;;;;;20.03;62.52;94422.78;5085413;28;20103;-75
2023/06/17 10:20:19;;;;;;;1.90;1.23;;;;;;;20.02;62.25;94426.84;5084344;28;20479;-74
2023/06/17 10:22:44;;;;;;;1.77;1.30;;;;;;;19.98;62.15;94417.97;5083829;28;20024;-74
2023/06/17 10:25:14;;;;;;;2.35;1.70;;;;;;;19.86;61.75;94433.97;5084095;28;20085;-74
2023/06/17 10:27:42;;;;;;;2.13;1.35;;;;;;;19.83;61.90;94435.72;5084268;28;20027;-74
2023/06/17 10:30:24;;;;;;;2.80;2.00;;;;;;;19.75;62.25;94433.97;5084152;28;20070;-74
2023/06/17 10:33:01;;;;;;;3.58;1.60;;;;;;;19.77;61.79;94434.97;5083731;28;20069;-74
2023/06/17 10:35:45;;;;;;;3.10;1.98;;;;;;;19.66;62.00;94435.00;5087912;28;20020;-73
2023/06/17 10:38:30;;;;;;;3.95;2.70;;;;;;;19.53;62.25;94429.91;5087720;28;20162;-74
2023/06/17 10:40:56;;;;;;;5.53;2.80;;;;;;;19.46;63.00;94430.44;5087541;28;20028;-72
2023/06/17 10:43:22;;;;;;;4.18;2.50;;;;;;;19.55;63.13;94430.16;5087588;28;20684;-73
2023/06/17 10:45:51;;;;;;;3.25;2.20;;;;;;;19.47;63.15;94433.97;5087444;28;20059;-73
2023/06/17 10:48:32;;;;;;;4.18;3.72;;;;;;;19.38;63.58;94437.75;5087484;28;20063;-73
2023/06/17 10:51:03;;;;;;;3.60;2.70;;;;;;;19.32;64.04;94434.22;5086830;28;20031;-73
2023/06/17 10:53:35;;;;;;;4.75;2.88;;;;;;;19.28;64.35;94439.31;5087734;28;20509;-74
2023/06/17 10:56:01;;;;;;;4.25;2.80;;;;;;;19.21;64.62;94437.00;5087364;28;20020;-74
2023/06/17 10:58:31;;;;;;;5.15;2.80;;;;;;;19.09;65.16;94436.97;5088934;28;20056;-74
2023/06/17 11:01:01;;;;;;;3.85;2.28;;;;;;;19.11;65.28;94447.66;5087140;28;20058;-72
2023/06/17 11:03:27;;;;;;;4.78;2.55;;;;;;;19.04;65.60;94440.53;5088893;28;20069;-73
2023/06/17 11:05:53;;;;;;;3.88;2.60;;;;;;;18.93;65.92;94439.78;5087950;28;20487;-73
2023/06/17 11:08:18;;;;;;;4.38;2.90;;;;;;;18.76;66.72;94436.94;5086958;28;20421;-73
2023/06/17 11:10:44;;;;;;;3.47;2.95;;;;;;;18.79;66.84;94442.25;5087045;28;20017;-74
2023/06/17 11:13:10;;;;;;;5.50;3.20;;;;;;;18.86;66.51;94440.25;5088282;28;20024;-73
2023/06/17 11:15:36;;;;;;;4.53;3.70;;;;;;;18.82;66.93;94446.06;5088540;28;20398;-73
2023/06/17 11:18:05;;;;;;;5.22;4.25;;;;;;;18.76;66.96;94448.84;5086805;28;20034;-73
2023/06/17 11:20:33;;;;;;;3.85;3.20;;;;;;;18.83;67.00;94447.59;5088278;28;20035;-73
2023/06/17 11:22:59;;;;;;;5.40;3.80;;;;;;;18.82;66.86;94438.47;5087682;28;20522;-74
2023/06/17 11:25:25;;;;;;;4.03;3.58;;;;;;;18.66;66.79;94441.94;5088317;28;20024;-73
2023/06/17 11:27:50;;;;;;;4.65;3.65;;;;;;;18.55;67.00;94439.88;5088394;28;20480;-73
2023/06/17 11:30:16;;;;;;;4.63;3.58;;;;;;;18.60;66.91;94452.31;5087894;28;20185;-73
2023/06/17 11:32:42;;;;;;;6.18;3.78;;;;;;;18.67;67.33;94448.28;5086848;28;20038;-73